Time;durP1;ratioP1;P1;durP2;ratioP2;P2;SDS_P1;SDS_P2;PMS_P1;PMS_P2;Temp;Humidity;BMP_temperature;BMP_pressure;BME280_temperature;BME280_humidity;BME280_pressure;Samples;Min_cycle;Max_cycle;Signal;HPM_P1;HPM_P2
2023/04/26 04:23:07;;;;;;;11.23;5.55;;;;;;;5.84;100.00;99813.34;5591128;31;502349;-86
2023/04/26 04:26:13;;;;;;;8.15;6.10;;;;;;;5.83;100.00;99804.56;5578717;31;33848;-87
2023/04/26 04:29:17;;;;;;;11.30;5.95;;;;;;;5.92;100.00;99798.97;5571797;32;34336;-87
2023/04/26 04:32:25;;;;;;;8.52;5.18;;;;;;;6.00;100.00;99814.47;5565716;32;33895;-87
2023/04/26 04:35:32;;;;;;;7.18;5.20;;;;;;;6.10;100.00;99824.63;5572228;32;34179;-87
2023/04/26 04:38:41;;;;;;;8.73;5.00;;;;;;;6.15;100.00;99828.81;5567327;32;34387;-86
2023/04/26 04:41:48;;;;;;;6.72;5.10;;;;;;;6.23;100.00;99835.56;5564205;32;33879;-87
2023/04/26 04:44:53;;;;;;;7.43;4.97;;;;;;;6.30;100.00;99850.19;5564034;32;33093;-87
2023/04/26 04:48:00;;;;;;;8.27;5.28;;;;;;;6.39;100.00;99847.16;5564694;32;33415;-87
2023/04/26 04:51:11;;;;;;;9.45;5.70;;;;;;;6.43;100.00;99848.75;5564693;32;34633;-87
2023/04/26 04:54:20;;;;;;;11.07;5.80;;;;;;;6.38;100.00;99853.34;5564218;32;34592;-87
2023/04/26 04:57:29;;;;;;;11.65;6.10;;;;;;;6.44;100.00;99863.63;5583325;32;33521;-87
2023/04/26 05:00:37;;;;;;;11.00;6.93;;;;;;;6.44;100.00;99862.81;5582398;32;33607;-87
2023/04/26 05:03:46;;;;;;;13.15;6.93;;;;;;;6.43;100.00;99874.22;5572922;32;33510;-87
2023/04/26 05:06:52;;;;;;;11.68;7.47;;;;;;;6.42;100.00;99885.69;5586340;31;33734;-88
2023/04/26 05:10:01;;;;;;;12.30;8.05;;;;;;;6.50;100.00;99878.37;5604655;31;34522;-87
2023/04/26 05:13:10;;;;;;;9.57;7.47;;;;;;;6.57;100.00;99892.13;5564939;32;34907;-88
2023/04/26 05:16:16;;;;;;;9.93;7.10;;;;;;;6.72;100.00;99891.50;5569012;32;33052;-88
2023/04/26 05:19:23;;;;;;;12.27;7.75;;;;;;;6.89;100.00;99887.28;5568350;32;34514;-87
2023/04/26 05:22:31;;;;;;;11.88;7.25;;;;;;;7.43;100.00;99894.66;5563006;32;33862;-92
2023/04/26 05:25:39;;;;;;;9.43;6.43;;;;;;;8.55;100.00;99892.16;5574247;32;34089;-89
2023/04/26 05:28:49;;;;;;;10.00;6.45;;;;;;;9.43;100.00;99891.31;5584781;32;33745;-85
2023/04/26 05:31:58;;;;;;;10.32;6.72;;;;;;;10.21;99.78;99893.28;5583834;31;34152;-86
2023/04/26 05:35:07;;;;;;;7.82;5.80;;;;;;;9.73;99.15;99900.34;5572836;32;33840;-84
2023/04/26 05:38:14;;;;;;;8.98;6.10;;;;;;;9.94;95.27;99901.84;5577213;32;33918;-84
2023/04/26 05:41:21;;;;;;;9.73;6.10;;;;;;;9.67;96.70;99902.37;5556756;32;34132;-85
2023/04/26 05:44:26;;;;;;;9.52;5.78;;;;;;;10.19;93.85;99907.56;5554406;32;33893;-85
2023/04/26 05:47:31;;;;;;;12.48;6.50;;;;;;;10.47;90.94;99911.34;5555810;32;33186;-83
2023/04/26 05:50:37;;;;;;;11.27;5.37;;;;;;;11.06;87.96;99905.31;5552934;32;33754;-85
2023/04/26 05:53:44;;;;;;;9.63;5.78;;;;;;;11.74;81.60;99900.34;5553136;32;33836;-84
2023/04/26 05:56:50;;;;;;;10.10;5.60;;;;;;;11.71;82.12;99922.66;5555298;32;32425;-85
2023/04/26 05:59:56;;;;;;;6.85;5.60;;;;;;;11.36;80.40;99925.66;5554358;32;34196;-85
2023/04/26 06:03:02;;;;;;;8.45;5.32;;;;;;;11.01;82.53;99921.50;5554068;32;33545;-84
2023/04/26 06:06:06;;;;;;;9.18;5.53;;;;;;;10.72;84.69;99925.87;5553575;32;34013;-83
2023/04/26 06:09:12;;;;;;;11.07;5.37;;;;;;;11.32;79.65;99926.81;5553588;32;33532;-84
2023/04/26 06:12:18;;;;;;;7.97;5.15;;;;;;;11.77;77.77;99928.53;5560606;32;34510;-84
2023/04/26 06:15:22;;;;;;;6.93;4.57;;;;;;;13.34;71.18;99932.59;5574034;32;33715;-84
2023/04/26 06:18:30;;;;;;;6.12;4.60;;;;;;;15.84;60.54;99939.44;5559457;32;33684;-84
2023/04/26 06:21:36;;;;;;;9.77;5.70;;;;;;;14.58;55.05;99940.03;5554450;32;34099;-83
2023/04/26 06:24:39;;;;;;;15.65;5.95;;;;;;;14.87;55.83;99937.88;5556234;32;34725;-84
2023/04/26 06:27:44;;;;;;;9.60;4.80;;;;;;;14.93;55.40;99942.78;5555624;32;33730;-84
2023/04/26 06:30:48;;;;;;;16.00;5.32;;;;;;;13.46;58.65;99940.75;5562333;32;33923;-82
2023/04/26 06:33:52;;;;;;;13.82;6.12;;;;;;;13.52;57.12;99943.00;5567539;32;33610;-84
2023/04/26 06:36:58;;;;;;;15.75;4.97;;;;;;;12.84;58.64;99932.41;5564035;32;33869;-84
2023/04/26 06:40:05;;;;;;;15.55;5.78;;;;;;;12.36;59.22;99941.69;5560521;32;33989;-83
2023/04/26 06:43:14;;;;;;;9.93;5.05;;;;;;;11.80;61.67;99934.53;5565211;32;33749;-88
2023/04/26 06:46:19;;;;;;;12.20;4.87;;;;;;;13.01;59.56;99933.94;5574950;32;33863;-87
2023/04/26 06:49:27;;;;;;;10.20;4.60;;;;;;;13.96;56.38;99927.50;5575506;32;33966;-83
2023/04/26 06:52:33;;;;;;;13.10;5.37;;;;;;;15.02;52.97;99937.69;5569657;32;34526;-82
2023/04/26 06:55:39;;;;;;;6.62;4.35;;;;;;;15.76;48.37;99948.06;5556315;32;33863;-82
2023/04/26 06:59:02;;;;;;;9.52;4.62;;;;;;;16.23;47.68;99952.47;5565542;32;34308;-83
2023/04/26 07:02:07;;;;;;;6.05;3.60;;;;;;;14.74;49.62;99950.44;5564941;32;34179;-83
2023/04/26 07:05:14;;;;;;;6.10;3.15;;;;;;;15.66;44.74;99948.91;5551975;32;33857;-83
2023/04/26 07:08:20;;;;;;;8.48;3.42;;;;;;;13.90;44.86;99945.75;5561528;32;33488;-83
2023/04/26 07:11:26;;;;;;;10.82;3.55;;;;;;;14.09;44.40;99943.47;5555921;32;34095;-82
2023/04/26 07:14:34;;;;;;;7.68;3.45;;;;;;;15.84;42.13;99950.13;5563668;32;33986;-83
2023/04/26 07:17:42;;;;;;;5.25;3.42;;;;;;;14.91;41.56;99949.19;5550671;32;33743;-82
2023/04/26 07:20:48;;;;;;;5.43;3.15;;;;;;;15.72;41.67;99959.12;5565902;32;34593;-82
2023/04/26 07:23:58;;;;;;;7.57;3.20;;;;;;;15.31;43.21;99964.03;5554331;32;33377;-82
2023/04/26 07:27:04;;;;;;;7.12;3.12;;;;;;;14.12;42.90;99943.25;5560833;32;33955;-82
2023/04/26 07:30:10;;;;;;;5.37;3.15;;;;;;;14.00;44.64;99954.81;5568835;32;33756;-83
2023/04/26 07:33:19;;;;;;;9.60;3.58;;;;;;;13.93;43.27;99958.88;5567652;32;33910;-83
2023/04/26 07:36:26;;;;;;;9.10;3.25;;;;;;;13.61;41.81;99970.81;5553037;32;33901;-82
2023/04/26 07:39:35;;;;;;;5.07;3.10;;;;;;;13.65;43.49;99967.00;5554432;32;34686;-82
2023/04/26 07:42:39;;;;;;;7.65;3.08;;;;;;;13.36;42.66;99980.47;5556802;32;33950;-83
2023/04/26 07:45:45;;;;;;;5.87;3.05;;;;;;;13.15;41.10;99988.09;5557828;32;34610;-83
2023/04/26 07:48:48;;;;;;;6.82;3.40;;;;;;;13.35;44.45;99992.06;5558173;32;33766;-83
2023/04/26 07:51:55;;;;;;;5.18;3.20;;;;;;;14.26;42.29;99994.75;5552533;32;33890;-87
2023/04/26 07:55:01;;;;;;;7.35;3.40;;;;;;;14.21;41.62;99984.44;5565196;32;33871;-88
2023/04/26 07:58:13;;;;;;;9.82;3.42;;;;;;;14.01;41.56;99989.38;5556171;32;34042;-83
2023/04/26 08:01:18;;;;;;;9.18;3.37;;;;;;;13.63;41.85;99994.69;5558340;32;34724;-83
2023/04/26 08:04:33;;;;;;;12.63;3.30;;;;;;;15.02;42.21;99993.78;5567162;32;33570;-83
2023/04/26 08:07:37;;;;;;;6.57;3.75;;;;;;;15.29;39.14;99998.03;5550317;32;36617;-82
2023/04/26 08:10:46;;;;;;;8.68;3.20;;;;;;;16.03;39.46;100007.56;5561560;32;34047;-86
2023/04/26 08:13:53;;;;;;;10.83;3.70;;;;;;;15.51;38.84;100002.59;5561866;32;34565;-84
2023/04/26 08:17:00;;;;;;;7.75;3.60;;;;;;;15.02;39.45;100004.47;5564706;32;34010;-86
2023/04/26 08:20:05;;;;;;;6.90;3.30;;;;;;;16.28;38.96;100013.63;5551528;32;34389;-86
2023/04/26 08:23:13;;;;;;;9.75;3.25;;;;;;;16.03;41.32;100011.09;5548311;32;33758;-85
2023/04/26 08:26:20;;;;;;;7.68;3.22;;;;;;;17.59;38.63;100019.97;5558972;32;34077;-85
2023/04/26 08:29:29;;;;;;;7.72;3.28;;;;;;;17.80;34.70;100026.31;5559813;32;33665;-83
2023/04/26 08:32:37;;;;;;;8.13;3.37;;;;;;;17.69;39.33;100006.63;5564787;31;34662;-83
2023/04/26 08:35:43;;;;;;;6.40;2.80;;;;;;;17.41;36.21;100027.75;5553075;31;34262;-83
2023/04/26 08:38:49;;;;;;;6.47;3.08;;;;;;;17.14;35.63;100030.91;5576366;31;33987;-83
2023/04/26 08:41:59;;;;;;;4.82;3.03;;;;;;;18.24;34.25;100024.28;5568642;31;33683;-82
2023/04/26 08:45:07;;;;;;;5.85;2.90;;;;;;;17.49;35.75;100027.94;5573257;31;34380;-83
2023/04/26 08:48:14;;;;;;;7.72;3.00;;;;;;;17.04;34.38;100025.47;5555466;32;34798;-82
2023/04/26 08:51:20;;;;;;;7.37;2.85;;;;;;;17.72;34.40;100038.56;5549653;32;34559;-82
2023/04/26 08:54:25;;;;;;;7.18;2.75;;;;;;;17.46;33.83;100032.72;5566479;32;35055;-83
2023/04/26 08:57:32;;;;;;;6.25;2.70;;;;;;;17.70;34.29;100034.31;5568107;32;33919;-84
2023/04/26 09:00:38;;;;;;;6.72;2.95;;;;;;;18.85;32.46;100052.06;5552158;32;33567;-88
2023/04/26 09:03:41;;;;;;;6.62;2.90;;;;;;;18.76;32.43;100042.12;5549822;32;33944;-89
2023/04/26 09:06:51;;;;;;;6.18;2.85;;;;;;;17.81;32.74;100028.88;5554418;32;33679;-88
2023/04/26 09:09:57;;;;;;;8.20;2.80;;;;;;;18.83;32.90;100045.13;5570514;32;34738;-85
2023/04/26 09:13:04;;;;;;;6.87;2.83;;;;;;;18.42;34.36;100039.78;5556855;32;33918;-85
2023/04/26 09:16:14;;;;;;;7.07;2.87;;;;;;;19.12;31.23;100039.81;5551487;32;33990;-84
2023/04/26 09:19:52;;;;;;;4.90;2.65;;;;;;;18.69;30.89;100035.59;5553894;32;34546;-85
2023/04/26 09:23:07;;;;;;;7.90;3.08;;;;;;;19.41;31.19;100034.59;5519565;32;34078;-84
2023/04/26 09:26:21;;;;;;;5.03;2.60;;;;;;;20.47;31.46;100037.16;5553240;32;33700;-85
2023/04/26 09:29:25;;;;;;;6.40;3.15;;;;;;;18.93;29.29;100040.63;5567213;32;33659;-86
2023/04/26 09:32:52;;;;;;;5.70;2.90;;;;;;;18.15;31.23;100028.62;5561096;32;33723;-85
2023/04/26 09:36:13;;;;;;;6.03;3.00;;;;;;;17.71;33.80;100030.63;5553122;32;33827;-85
2023/04/26 09:39:39;;;;;;;8.32;2.72;;;;;;;19.02;31.42;100040.75;5550153;32;34067;-85
2023/04/26 09:42:44;;;;;;;10.35;2.62;;;;;;;18.77;30.94;100033.09;5550662;32;34817;-85
2023/04/26 09:45:54;;;;;;;6.87;2.83;;;;;;;18.91;31.37;100034.50;5549222;32;33942;-85
2023/04/26 09:49:02;;;;;;;5.45;2.72;;;;;;;18.50;31.61;100028.34;5566375;32;34313;-85
2023/04/26 09:52:09;;;;;;;5.60;2.60;;;;;;;18.17;32.60;100026.66;5573365;32;34997;-84
2023/04/26 09:55:26;;;;;;;6.05;2.83;;;;;;;18.39;29.70;100032.84;5573730;31;34226;-85
2023/04/26 09:58:59;;;;;;;3.33;2.20;;;;;;;19.16;31.85;100031.47;5576972;31;33480;-85
2023/04/26 10:02:03;;;;;;;8.60;4.10;;;;;;;19.88;28.10;100031.09;5582334;31;34066;-84
2023/04/26 10:05:08;;;;;;;9.35;2.80;;;;;;;18.42;31.24;100031.72;5584768;31;33859;-84
2023/04/26 10:08:13;;;;;;;5.68;2.72;;;;;;;19.53;29.08;100036.13;5571073;31;34021;-82
2023/04/26 10:11:20;;;;;;;5.87;2.80;;;;;;;19.73;29.79;100022.63;5578241;31;33889;-82
2023/04/26 10:14:26;;;;;;;4.03;2.55;;;;;;;19.08;30.10;100027.66;5565939;31;34176;-82
2023/04/26 10:17:34;;;;;;;4.82;2.35;;;;;;;19.63;28.64;100028.03;5563099;31;32211;-82
2023/04/26 10:20:44;;;;;;;4.93;2.95;;;;;;;18.61;29.60;100022.03;5575305;31;33876;-83
2023/04/26 10:23:51;;;;;;;5.07;2.33;;;;;;;18.18;30.80;100025.69;5592955;31;33506;-83
2023/04/26 10:26:58;;;;;;;4.32;2.55;;;;;;;17.27;31.29;100025.38;5579116;31;34191;-82
2023/04/26 10:30:06;;;;;;;6.15;2.22;;;;;;;17.89;30.70;100030.87;5577435;31;33884;-83
2023/04/26 10:33:13;;;;;;;3.72;2.00;;;;;;;17.76;31.01;100034.59;5576928;31;34104;-82
2023/04/26 10:36:20;;;;;;;5.70;2.85;;;;;;;18.10;28.56;100044.28;5574266;32;33907;-87
2023/04/26 10:39:28;;;;;;;7.00;2.78;;;;;;;17.96;28.89;100028.53;5566048;32;34007;-83
2023/04/26 10:42:33;;;;;;;5.57;2.85;;;;;;;17.87;30.29;100036.38;5577027;32;34077;-82
2023/04/26 10:45:39;;;;;;;6.62;2.40;;;;;;;18.80;27.80;100030.13;5553660;32;34632;-84
2023/04/26 10:48:44;;;;;;;3.33;2.30;;;;;;;17.78;28.35;100042.53;5559956;31;33888;-82
2023/04/26 10:52:11;;;;;;;10.55;2.55;;;;;;;16.83;29.68;100044.97;5558060;32;34015;-81
2023/04/26 10:55:40;;;;;;;3.65;2.55;;;;;;;15.89;30.00;100038.88;5570553;32;33897;-84
2023/04/26 10:58:45;;;;;;;7.32;2.35;;;;;;;15.44;31.38;100030.75;5554204;32;34180;-87
2023/04/26 11:01:51;;;;;;;5.22;2.30;;;;;;;15.33;30.88;100024.41;5566277;32;34031;-85
2023/04/26 11:04:55;;;;;;;4.50;2.15;;;;;;;15.99;31.23;100035.53;5552072;32;33851;-85
2023/04/26 11:08:08;;;;;;;3.83;2.20;;;;;;;14.99;32.55;100034.94;5573347;31;34227;-85
2023/04/26 11:11:12;;;;;;;3.72;2.22;;;;;;;14.50;34.69;100024.19;5568623;32;33807;-86
2023/04/26 11:14:25;;;;;;;6.85;2.55;;;;;;;14.84;33.69;100030.72;5559325;32;34050;-85
2023/04/26 11:17:36;;;;;;;2.72;2.20;;;;;;;15.13;32.10;100027.72;5564763;32;33607;-86
2023/04/26 11:20:40;;;;;;;4.20;2.10;;;;;;;15.33;32.33;100021.72;5552212;32;34140;-86
2023/04/26 11:23:53;;;;;;;5.15;2.03;;;;;;;16.11;30.15;100023.87;5562177;32;33635;-86
2023/04/26 11:26:59;;;;;;;5.60;2.10;;;;;;;15.42;31.23;100025.53;5569445;32;33390;-86
2023/04/26 11:30:03;;;;;;;10.10;3.15;;;;;;;14.63;34.23;100021.47;5570167;32;33732;-86
2023/04/26 11:33:21;;;;;;;5.10;2.30;;;;;;;13.89;36.07;100024.91;5558047;32;33843;-90
2023/04/26 11:36:26;;;;;;;5.57;2.40;;;;;;;13.26;37.05;100030.84;5568625;32;34557;-86
2023/04/26 11:39:35;;;;;;;3.00;2.33;;;;;;;13.35;37.56;100024.03;5570841;32;34780;-86
2023/04/26 11:42:41;;;;;;;5.87;2.60;;;;;;;13.05;36.91;100038.44;5563080;32;34681;-85
2023/04/26 11:45:44;;;;;;;7.72;2.60;;;;;;;13.43;36.16;100035.03;5550392;32;33724;-85
2023/04/26 11:48:49;;;;;;;4.37;2.33;;;;;;;14.39;34.75;100037.44;5560632;32;34308;-86
2023/04/26 11:51:55;;;;;;;5.05;2.50;;;;;;;14.11;34.96;100039.38;5563542;31;33987;-86
2023/04/26 11:55:05;;;;;;;6.12;2.70;;;;;;;14.20;35.87;100045.88;5562540;31;33607;-86
2023/04/26 11:58:13;;;;;;;4.10;2.60;;;;;;;13.90;37.36;100039.06;5565576;31;34496;-86
2023/04/26 12:01:25;;;;;;;3.17;2.30;;;;;;;13.30;37.25;100032.34;5559303;32;33812;-86
2023/04/26 12:04:30;;;;;;;4.35;2.58;;;;;;;13.36;36.30;100044.37;5559040;32;34919;-88
2023/04/26 12:07:36;;;;;;;2.58;1.85;;;;;;;13.61;38.09;100032.09;5557312;31;34056;-89
2023/04/26 12:10:41;;;;;;;3.83;2.20;;;;;;;13.66;36.96;100037.97;5580667;26;33956;-89
2023/04/26 12:13:46;;;;;;;3.25;2.10;;;;;;;13.97;36.52;100043.87;5538916;32;33881;-90
2023/04/26 12:16:52;;;;;;;2.50;2.08;;;;;;;14.19;35.28;100042.38;5530487;32;33972;-87
2023/04/26 12:19:57;;;;;;;5.00;2.60;;;;;;;14.09;33.63;100033.31;5529230;32;35047;-88
2023/04/26 12:23:08;;;;;;;5.90;2.17;;;;;;;13.19;36.60;100042.84;5528909;32;34169;-87
2023/04/26 12:26:12;;;;;;;3.12;2.20;;;;;;;13.20;35.53;100056.09;5534575;32;34070;-88
2023/04/26 12:29:16;;;;;;;3.45;2.20;;;;;;;12.79;35.02;100057.81;5535157;32;34583;-89
2023/04/26 12:32:20;;;;;;;5.80;2.25;;;;;;;12.25;36.17;100050.56;5533378;32;33993;-87
2023/04/26 12:35:28;;;;;;;3.78;2.15;;;;;;;12.25;36.05;100048.75;5532652;32;33894;-89
2023/04/26 12:38:34;;;;;;;4.57;2.20;;;;;;;12.90;36.75;100038.50;5548969;26;34317;-90
2023/04/26 12:41:39;;;;;;;3.55;1.83;;;;;;;13.28;35.92;100050.22;5532652;32;34050;-88
2023/04/26 12:44:43;;;;;;;5.37;2.00;;;;;;;13.47;34.27;100044.56;5532778;32;33864;-88
2023/04/26 12:48:04;;;;;;;4.37;2.20;;;;;;;13.30;32.92;100053.66;5531707;32;33340;-89
2023/04/26 12:51:10;;;;;;;5.93;2.10;;;;;;;12.71;34.88;100046.81;5532587;32;33923;-87
2023/04/26 12:54:15;;;;;;;4.55;2.53;;;;;;;12.83;36.88;100050.50;5534428;32;33476;-89
2023/04/26 12:57:20;;;;;;;6.60;2.22;;;;;;;13.44;36.83;100044.72;5532243;32;33868;-87
2023/04/26 13:00:26;;;;;;;9.05;2.58;;;;;;;13.08;38.16;100051.56;5530997;32;34836;-87
2023/04/26 13:03:30;;;;;;;6.50;2.60;;;;;;;13.40;36.24;100045.03;5538849;32;34106;-87
2023/04/26 13:06:37;;;;;;;5.95;2.40;;;;;;;13.51;36.84;100044.34;5530295;32;33714;-88
2023/04/26 13:09:46;;;;;;;4.85;2.30;;;;;;;13.39;35.39;100062.84;5531240;32;33774;-88
2023/04/26 13:12:52;;;;;;;7.32;2.28;;;;;;;12.64;35.26;100075.63;5540047;32;33716;-87
2023/04/26 13:15:59;;;;;;;4.93;2.72;;;;;;;12.53;35.13;100070.97;5538430;32;34896;-87
2023/04/26 13:19:06;;;;;;;3.05;1.90;;;;;;;12.79;33.96;100071.09;5537822;32;33918;-88
2023/04/26 13:22:11;;;;;;;3.78;2.55;;;;;;;13.11;33.89;100062.00;5530773;32;35302;-87
2023/04/26 13:25:19;;;;;;;4.22;2.35;;;;;;;13.34;35.71;100067.63;5531583;32;34053;-87
2023/04/26 13:28:22;;;;;;;3.08;2.20;;;;;;;13.77;36.15;100063.06;5538807;32;34757;-87
2023/04/26 13:31:31;;;;;;;3.62;2.10;;;;;;;13.32;35.42;100078.38;5531644;32;33869;-88
2023/04/26 13:34:36;;;;;;;3.95;2.30;;;;;;;13.47;33.84;100073.00;5531515;32;34297;-87
2023/04/26 13:37:42;;;;;;;7.47;2.62;;;;;;;13.03;34.76;100066.97;5539051;32;34114;-88
2023/04/26 13:40:46;;;;;;;3.50;2.05;;;;;;;13.60;34.61;100065.91;5554219;32;33992;-88
2023/04/26 13:43:53;;;;;;;3.97;2.45;;;;;;;13.67;34.72;100077.00;5534093;32;33877;-88
2023/04/26 13:46:59;;;;;;;2.95;2.20;;;;;;;12.79;36.53;100075.59;5532885;32;34170;-89
2023/04/26 13:50:03;;;;;;;5.40;2.20;;;;;;;12.58;37.79;100085.78;5533161;32;33882;-88
2023/04/26 13:53:07;;;;;;;4.90;2.20;;;;;;;12.47;38.08;100083.81;5550726;32;34047;-89
2023/04/26 13:56:10;;;;;;;3.50;1.75;;;;;;;12.77;37.83;100099.62;5548415;32;33865;-88
2023/04/26 13:59:16;;;;;;;2.70;2.10;;;;;;;12.35;38.39;100093.38;5533820;32;33836;-88
2023/04/26 14:02:21;;;;;;;3.50;2.22;;;;;;;11.96;37.43;100106.31;5531263;32;34537;-88
2023/04/26 14:05:28;;;;;;;3.83;2.42;;;;;;;12.29;37.52;100107.06;5537503;32;33567;-88
2023/04/26 14:08:35;;;;;;;4.65;2.20;;;;;;;12.45;36.65;100107.84;5532733;32;34206;-92
2023/04/26 14:11:41;;;;;;;3.17;2.20;;;;;;;12.32;37.04;100098.91;5535329;32;35035;-92
2023/04/26 14:14:50;;;;;;;3.53;1.80;;;;;;;13.25;36.54;100093.06;5534614;32;34169;-89
2023/04/26 14:17:57;;;;;;;2.85;1.75;;;;;;;12.31;37.37;100091.87;5537071;32;34701;-88
2023/04/26 14:21:05;;;;;;;3.40;2.20;;;;;;;12.48;38.11;100099.66;5533438;32;33911;-88
2023/04/26 14:24:18;;;;;;;2.75;2.03;;;;;;;12.44;39.17;100106.13;5567738;26;33805;-87
2023/04/26 14:31:01;;;;;;;3.28;2.33;;;;;;;11.91;38.59;100105.78;2082399;30;20073;-86
2023/04/26 14:34:06;;;;;;;5.32;2.30;;;;;;;12.15;37.84;100100.78;5529988;32;32814;-84
2023/04/26 14:37:12;;;;;;;4.57;2.20;;;;;;;12.73;44.45;100106.09;5531433;32;34053;-86
2023/04/26 14:40:22;;;;;;;3.03;2.33;;;;;;;13.10;38.25;100112.69;5522459;32;34712;-86
2023/04/26 14:43:30;;;;;;;4.25;2.20;;;;;;;12.76;38.24;100105.91;5524517;32;33759;-87
2023/04/26 14:46:38;;;;;;;3.45;1.90;;;;;;;12.94;37.34;100111.03;5524065;32;33765;-87
2023/04/26 14:49:45;;;;;;;4.60;2.20;;;;;;;12.64;37.49;100115.53;5525511;32;33869;-87
2023/04/26 14:52:52;;;;;;;4.60;2.05;;;;;;;12.53;37.60;100113.53;5553912;26;33319;-87
2023/04/26 14:55:59;;;;;;;7.53;2.40;;;;;;;12.77;40.34;100122.75;5546933;32;33815;-86
2023/04/26 14:59:09;;;;;;;3.23;2.13;;;;;;;12.95;43.87;100112.72;5546508;32;33402;-86
2023/04/26 15:02:16;;;;;;;3.33;1.90;;;;;;;12.30;38.78;100122.06;5545913;32;33645;-88
2023/04/26 15:05:23;;;;;;;5.07;1.77;;;;;;;11.64;40.20;100117.94;5545110;32;33486;-87
2023/04/26 15:08:30;;;;;;;3.87;2.10;;;;;;;11.84;39.38;100114.09;5547695;32;33740;-86
2023/04/26 15:11:40;;;;;;;4.00;2.10;;;;;;;12.07;39.29;100114.53;5545641;32;33355;-86
2023/04/26 15:14:47;;;;;;;3.58;2.05;;;;;;;12.19;39.16;100130.72;5544008;32;33533;-87
2023/04/26 15:17:55;;;;;;;1.90;1.70;;;;;;;11.96;39.39;100131.13;5546666;32;33439;-86
2023/04/26 15:20:59;;;;;;;3.20;1.90;;;;;;;11.76;40.44;100129.63;5546555;32;33580;-87
2023/04/26 15:24:08;;;;;;;7.18;2.37;;;;;;;11.88;40.52;100133.38;5546799;32;34714;-87
2023/04/26 15:27:11;;;;;;;3.92;2.05;;;;;;;11.96;40.90;100135.56;5546361;32;33780;-87
2023/04/26 15:30:16;;;;;;;2.50;1.95;;;;;;;11.81;41.06;100129.34;5546719;32;34911;-85
2023/04/26 15:33:20;;;;;;;5.47;2.08;;;;;;;11.83;41.55;100140.78;5549757;32;33719;-85
2023/04/26 15:36:28;;;;;;;4.37;2.20;;;;;;;11.65;41.16;100140.03;5546202;32;33568;-86
2023/04/26 15:39:36;;;;;;;8.20;2.20;;;;;;;11.76;40.55;100145.56;5546869;32;33873;-84
2023/04/26 15:42:44;;;;;;;4.20;2.10;;;;;;;11.88;40.75;100135.16;5548361;32;33847;-86
2023/04/26 15:45:53;;;;;;;3.15;2.20;;;;;;;11.93;39.08;100131.28;5548293;32;34785;-86
